Time;durP1;ratioP1;P1;durP2;ratioP2;P2;SDS_P1;SDS_P2;PMS_P1;PMS_P2;Temp;Humidity;BMP_temperature;BMP_pressure;BME280_temperature;BME280_humidity;BME280_pressure;Samples;Min_cycle;Max_cycle;Signal;HPM_P1;HPM_P2
2021/12/30 00:00:52;;;;;;;40.50;7.35;;;;;;;12.09;84.59;100884.53;3590147;39;20524;-63
2021/12/30 00:03:18;;;;;;;35.53;7.25;;;;;;;12.07;84.33;100899.94;3587968;39;20053;-63
2021/12/30 00:05:44;;;;;;;33.95;8.02;;;;;;;12.06;84.33;100898.22;3587240;39;20055;-62
2021/12/30 00:08:11;;;;;;;36.90;7.97;;;;;;;12.06;84.46;100903.63;3589193;39;20486;-62
2021/12/30 00:10:40;;;;;;;46.03;9.38;;;;;;;12.07;84.80;100899.94;3589918;39;20051;-63
2021/12/30 00:13:06;;;;;;;36.15;8.90;;;;;;;12.04;84.82;100892.06;3586041;39;20077;-62
2021/12/30 00:15:32;;;;;;;33.67;8.25;;;;;;;11.88;84.57;100853.66;3590054;39;20067;-62
2021/12/30 00:17:58;;;;;;;49.05;9.75;;;;;;;12.09;84.59;100887.25;3589102;39;20129;-62
2021/12/30 00:20:24;;;;;;;33.70;8.98;;;;;;;12.13;84.69;100893.28;3588977;39;20064;-62
2021/12/30 00:22:50;;;;;;;35.70;8.57;;;;;;;12.13;84.38;100898.66;3590110;39;20048;-62
2021/12/30 00:25:16;;;;;;;42.58;9.32;;;;;;;12.11;84.78;100900.59;3583491;39;20111;-62
2021/12/30 00:27:42;;;;;;;44.80;9.10;;;;;;;12.12;84.97;100900.50;3585482;39;20571;-62
2021/12/30 00:30:12;;;;;;;41.22;9.93;;;;;;;12.15;84.80;100899.44;3587397;39;20101;-62
2021/12/30 00:32:37;;;;;;;42.22;9.38;;;;;;;12.16;84.70;100891.25;3590932;39;20055;-62
2021/12/30 00:35:04;;;;;;;42.80;10.43;;;;;;;12.18;85.11;100901.91;3589260;39;20577;-62
2021/12/30 00:37:30;;;;;;;33.00;8.25;;;;;;;12.08;84.79;100878.28;3587191;39;20486;-62
2021/12/30 00:39:56;;;;;;;34.72;8.00;;;;;;;12.19;84.75;100906.34;3589945;39;20059;-62
2021/12/30 00:42:22;;;;;;;36.45;8.25;;;;;;;12.05;84.63;100877.63;3589450;39;20055;-62
2021/12/30 00:44:47;;;;;;;35.28;8.00;;;;;;;12.24;84.54;100907.78;3589068;39;20052;-62
2021/12/30 00:47:13;;;;;;;31.27;8.23;;;;;;;12.29;84.28;100913.69;3587034;39;20067;-62
2021/12/30 00:49:39;;;;;;;35.92;8.05;;;;;;;12.28;84.87;100920.06;3591519;39;20062;-62
2021/12/30 00:52:04;;;;;;;42.38;8.60;;;;;;;12.34;84.40;100921.50;3589048;39;20108;-62
2021/12/30 00:54:30;;;;;;;36.53;8.10;;;;;;;12.34;84.80;100912.50;3590804;39;20099;-63
2021/12/30 00:56:56;;;;;;;33.17;7.72;;;;;;;12.42;84.48;100923.66;3591076;39;20051;-63
2021/12/30 00:59:21;;;;;;;31.50;6.88;;;;;;;12.45;84.61;100934.22;3591861;39;20313;-63
2021/12/30 01:01:47;;;;;;;31.90;7.43;;;;;;;12.45;84.33;100927.00;3590695;39;20059;-62
2021/12/30 01:04:13;;;;;;;31.60;6.78;;;;;;;12.46;84.42;100925.16;3590105;39;20055;-62
2021/12/30 01:06:39;;;;;;;37.97;8.05;;;;;;;12.50;84.96;100921.31;3590614;39;20404;-63
2021/12/30 01:09:05;;;;;;;34.33;7.20;;;;;;;12.54;84.77;100917.44;3590954;39;20047;-62
2021/12/30 01:11:32;;;;;;;33.55;7.05;;;;;;;12.37;84.69;100882.66;3590501;39;20377;-62
2021/12/30 01:14:03;;;;;;;35.38;6.88;;;;;;;12.38;84.69;100887.09;3591146;39;20144;-61
2021/12/30 01:16:35;;;;;;;42.67;7.32;;;;;;;12.59;85.06;100928.78;3592380;39;20539;-61
2021/12/30 01:19:23;;;;;;;35.72;7.97;;;;;;;12.63;84.61;100926.72;3589823;39;20116;-60
2021/12/30 01:21:53;;;;;;;36.45;7.45;;;;;;;12.63;85.17;100930.28;3589398;39;20052;-63
2021/12/30 01:24:22;;;;;;;28.90;6.80;;;;;;;12.66;85.01;100932.78;3589930;39;20075;-61
2021/12/30 01:26:48;;;;;;;33.58;6.82;;;;;;;12.68;85.31;100928.09;3591587;39;20092;-61
2021/12/30 01:29:14;;;;;;;36.03;7.38;;;;;;;12.74;85.36;100934.91;3587916;39;20197;-61
2021/12/30 01:31:40;;;;;;;34.15;7.75;;;;;;;12.74;85.16;100935.78;3591503;39;20052;-62
2021/12/30 01:34:06;;;;;;;34.03;7.57;;;;;;;12.82;85.38;100939.81;3590557;39;20409;-61
2021/12/30 01:36:32;;;;;;;35.25;7.63;;;;;;;12.83;85.48;100928.88;3588499;39;20087;-61
2021/12/30 01:38:57;;;;;;;36.95;7.97;;;;;;;12.87;85.25;100929.53;3591080;39;20078;-61
2021/12/30 01:41:23;;;;;;;31.23;7.47;;;;;;;12.91;85.22;100937.31;3591050;39;20058;-61
2021/12/30 01:43:50;;;;;;;38.63;8.52;;;;;;;12.70;85.24;100906.44;3590408;39;20105;-62
2021/12/30 01:46:16;;;;;;;31.73;8.27;;;;;;;12.92;85.64;100930.94;3590384;39;20085;-62
2021/12/30 01:48:43;;;;;;;30.17;7.07;;;;;;;12.98;85.64;100926.97;3587671;39;20084;-62
2021/12/30 01:51:10;;;;;;;32.55;8.15;;;;;;;12.87;85.34;100891.75;3591197;39;20168;-61
2021/12/30 01:53:37;;;;;;;34.88;8.48;;;;;;;13.04;85.67;100933.78;3588040;39;20687;-62
2021/12/30 01:56:05;;;;;;;36.22;8.13;;;;;;;12.80;85.27;100885.09;3589730;39;20059;-61
2021/12/30 01:58:32;;;;;;;28.55;7.90;;;;;;;13.08;85.74;100932.56;3590770;39;20051;-62
2021/12/30 02:00:58;;;;;;;30.80;8.05;;;;;;;13.09;85.03;100932.44;3590421;39;20055;-62
2021/12/30 02:03:24;;;;;;;27.33;8.30;;;;;;;13.08;85.44;100921.78;3590752;39;20134;-62
2021/12/30 02:05:50;;;;;;;38.15;9.82;;;;;;;13.13;85.40;100930.41;3589623;39;20056;-61
2021/12/30 02:08:19;;;;;;;30.58;8.05;;;;;;;13.06;85.37;100918.31;3591110;39;20089;-62
2021/12/30 02:10:48;;;;;;;26.27;8.13;;;;;;;13.16;85.62;100922.97;3591093;39;20059;-61
2021/12/30 02:13:18;;;;;;;32.80;8.32;;;;;;;13.16;85.49;100928.38;3591309;39;20077;-61
2021/12/30 02:15:45;;;;;;;27.10;8.70;;;;;;;12.85;85.60;100872.16;3592469;39;20163;-61
2021/12/30 02:18:11;;;;;;;34.65;8.95;;;;;;;13.17;85.60;100923.81;3592239;39;20048;-61
2021/12/30 02:20:51;;;;;;;27.05;8.45;;;;;;;13.17;85.60;100921.13;3591154;39;20064;-61
2021/12/30 02:23:24;;;;;;;30.65;9.07;;;;;;;13.16;85.67;100924.78;3592812;39;21012;-61
2021/12/30 02:25:58;;;;;;;25.20;7.75;;;;;;;13.16;85.88;100928.38;3619613;22;20470;-65
2021/12/30 02:28:28;;;;;;;;;;;;;;;13.18;85.92;100929.09;3576543;40;20317;-63
2021/12/30 02:30:58;;;;;;;31.90;9.10;;;;;;;13.17;85.88;100937.31;3579024;40;19939;-65
2021/12/30 02:33:25;;;;;;;22.25;7.32;;;;;;;13.01;86.26;100915.97;3574749;40;20062;-65
2021/12/30 02:35:53;;;;;;;27.90;8.18;;;;;;;13.17;86.96;100922.00;3576424;40;20101;-64
2021/12/30 02:38:22;;;;;;;27.08;8.50;;;;;;;13.15;86.58;100934.72;3579211;40;20092;-66
2021/12/30 02:40:54;;;;;;;23.63;7.70;;;;;;;13.23;86.59;100940.44;3580377;40;20058;-66
2021/12/30 02:43:29;;;;;;;27.42;8.70;;;;;;;13.19;86.40;100930.84;3579813;40;20053;-64
2021/12/30 02:45:59;;;;;;;27.48;9.32;;;;;;;13.18;86.56;100926.41;3577994;40;20067;-64
2021/12/30 02:48:29;;;;;;;25.67;8.57;;;;;;;13.21;87.08;100928.88;3579508;40;20122;-65
2021/12/30 02:51:00;;;;;;;23.52;8.00;;;;;;;13.20;87.33;100932.56;3579674;40;20350;-65
2021/12/30 02:53:26;;;;;;;23.63;9.23;;;;;;;13.19;87.25;100936.25;3580779;40;20053;-65
2021/12/30 02:55:53;;;;;;;31.05;9.13;;;;;;;13.22;87.24;100935.16;3579229;40;20090;-64
2021/12/30 02:58:24;;;;;;;17.80;8.10;;;;;;;13.20;87.47;100935.28;3579124;40;20056;-64
2021/12/30 03:01:08;;;;;;;24.05;8.70;;;;;;;13.18;87.53;100948.00;3579882;40;20173;-63
2021/12/30 03:03:35;;;;;;;23.48;9.10;;;;;;;13.18;87.97;100942.59;3579746;40;20827;-65
2021/12/30 03:06:06;;;;;;;22.40;9.25;;;;;;;13.19;88.50;100941.66;3577747;40;20298;-64
2021/12/30 03:08:33;;;;;;;23.17;9.15;;;;;;;13.16;89.07;100949.97;3577980;40;20130;-65
2021/12/30 03:10:59;;;;;;;22.88;9.27;;;;;;;13.16;89.16;100949.06;3579696;40;20091;-64
2021/12/30 03:13:32;;;;;;;16.50;8.35;;;;;;;13.13;89.26;100942.09;3575505;40;20388;-64
2021/12/30 03:16:03;;;;;;;27.45;9.13;;;;;;;13.06;89.54;100929.97;3578183;40;20045;-65
2021/12/30 03:18:32;;;;;;;18.70;8.40;;;;;;;13.18;89.23;100958.78;3580020;40;20127;-65
2021/12/30 03:20:59;;;;;;;17.35;9.10;;;;;;;13.17;89.50;100957.06;3577064;40;20060;-67
2021/12/30 03:23:26;;;;;;;18.30;8.57;;;;;;;13.18;89.94;100950.69;3579551;40;20096;-65
2021/12/30 03:25:51;;;;;;;14.82;8.38;;;;;;;13.18;90.06;100952.53;3579026;40;20056;-66
2021/12/30 03:28:17;;;;;;;19.65;8.48;;;;;;;13.17;89.76;100954.38;3578557;40;20064;-64
2021/12/30 03:30:43;;;;;;;14.40;8.52;;;;;;;13.19;89.98;100957.84;3577760;40;20090;-64
2021/12/30 03:33:09;;;;;;;16.55;8.40;;;;;;;13.21;90.04;100955.03;3577429;40;20044;-64
2021/12/30 03:35:35;;;;;;;12.35;7.55;;;;;;;13.22;90.17;100952.22;3579405;40;20125;-65
2021/12/30 03:38:01;;;;;;;15.57;7.70;;;;;;;13.21;90.48;100947.78;3579382;40;20059;-64
2021/12/30 03:40:27;;;;;;;12.98;7.82;;;;;;;13.28;90.32;100950.94;3576623;40;20052;-64
2021/12/30 03:42:52;;;;;;;10.63;7.15;;;;;;;13.27;90.08;100945.66;3579517;40;20072;-63
2021/12/30 03:45:20;;;;;;;15.68;7.40;;;;;;;13.28;90.59;100950.94;3577798;40;20133;-65
2021/12/30 03:47:49;;;;;;;9.48;6.32;;;;;;;13.34;90.29;100955.91;3579016;40;20048;-65
2021/12/30 03:50:27;;;;;;;8.43;6.03;;;;;;;13.33;90.17;100950.63;3578360;40;20052;-64
2021/12/30 03:53:02;;;;;;;9.90;5.80;;;;;;;13.39;90.63;100955.59;3578933;40;20043;-64
2021/12/30 03:55:30;;;;;;;8.20;5.50;;;;;;;13.38;90.30;100952.03;3578693;40;20066;-65
2021/12/30 03:57:57;;;;;;;5.35;4.85;;;;;;;13.44;90.27;100956.09;3577378;40;20063;-64
2021/12/30 04:00:26;;;;;;;6.75;5.45;;;;;;;13.45;90.38;100957.84;3577201;40;20485;-64
2021/12/30 04:02:52;;;;;;;5.85;4.95;;;;;;;13.45;90.33;100949.75;3579345;40;20055;-61
2021/12/30 04:05:19;;;;;;;7.03;5.47;;;;;;;13.48;90.30;100957.63;3576276;40;20069;-64
2021/12/30 04:07:44;;;;;;;10.15;6.03;;;;;;;13.30;90.36;100921.16;3577506;40;20092;-63
2021/12/30 04:10:13;;;;;;;8.75;7.10;;;;;;;13.53;90.62;100960.84;3578267;40;20602;-64
2021/12/30 04:12:40;;;;;;;9.70;7.07;;;;;;;13.44;90.14;100929.09;3579279;40;20072;-66
2021/12/30 04:15:08;;;;;;;10.90;7.70;;;;;;;13.57;90.09;100951.53;3578799;40;20088;-67
2021/12/30 04:17:34;;;;;;;11.27;8.35;;;;;;;13.59;90.34;100954.16;3577838;40;21351;-63
2021/12/30 04:20:00;;;;;;;12.30;8.75;;;;;;;13.60;90.35;100964.81;3579096;40;20476;-63
2021/12/30 04:22:25;;;;;;;14.07;10.35;;;;;;;13.61;90.39;100969.28;3579593;40;20060;-65
2021/12/30 04:24:51;;;;;;;19.58;13.05;;;;;;;13.23;90.05;100899.09;3578944;40;20063;-64
2021/12/30 04:27:17;;;;;;;17.95;13.82;;;;;;;13.70;90.39;100965.03;3579367;40;20075;-65
2021/12/30 04:29:42;;;;;;;16.40;13.18;;;;;;;13.74;89.76;100971.09;3583002;40;20063;-63
2021/12/30 04:32:09;;;;;;;18.20;14.63;;;;;;;13.77;89.73;100979.84;3580733;40;20056;-64
2021/12/30 04:34:35;;;;;;;19.83;15.48;;;;;;;13.81;90.09;100983.16;3579420;40;20088;-64
2021/12/30 04:37:00;;;;;;;18.65;15.63;;;;;;;13.83;89.53;100973.13;3580111;40;20506;-65
2021/12/30 04:39:30;;;;;;;21.75;16.88;;;;;;;13.83;89.64;100971.28;3575806;40;20064;-64
2021/12/30 04:42:01;;;;;;;20.73;17.55;;;;;;;13.89;89.39;100983.44;3580561;40;20067;-65
2021/12/30 04:44:28;;;;;;;22.55;19.75;;;;;;;13.88;89.74;100970.94;3579308;40;20080;-64
2021/12/30 04:46:56;;;;;;;22.15;19.75;;;;;;;13.91;89.25;100970.69;3580242;40;20052;-65
2021/12/30 04:49:24;;;;;;;21.42;19.17;;;;;;;13.99;89.36;100981.81;3570166;40;20403;-65
2021/12/30 04:51:51;;;;;;;22.90;19.15;;;;;;;13.99;89.30;100989.06;3578962;40;20053;-66
2021/12/30 04:54:18;;;;;;;20.88;18.50;;;;;;;13.91;88.99;100965.28;3579903;40;20075;-65
2021/12/30 04:56:44;;;;;;;21.05;18.90;;;;;;;14.00;88.74;100985.38;3578892;40;20188;-65
2021/12/30 04:59:09;;;;;;;21.42;19.17;;;;;;;14.03;89.08;100980.63;3579910;40;20058;-65
2021/12/30 05:01:35;;;;;;;20.00;17.90;;;;;;;14.03;88.79;100983.31;3581113;40;20057;-64
2021/12/30 05:04:01;;;;;;;20.60;18.00;;;;;;;14.04;88.34;100986.88;3580170;40;20411;-66
2021/12/30 05:06:27;;;;;;;19.23;17.20;;;;;;;14.08;88.70;100985.66;3577783;40;20080;-64
2021/12/30 05:08:52;;;;;;;18.30;16.40;;;;;;;14.08;88.62;100994.66;3578640;40;20052;-64
2021/12/30 05:11:18;;;;;;;18.02;16.10;;;;;;;14.07;88.23;100987.50;3580477;40;20049;-65
2021/12/30 05:13:43;;;;;;;18.42;15.30;;;;;;;14.09;88.68;100996.38;3580776;40;20376;-64
2021/12/30 05:16:09;;;;;;;14.85;13.35;;;;;;;13.99;88.56;100972.88;3578315;40;20052;-65
2021/12/30 05:18:36;;;;;;;14.27;12.88;;;;;;;14.12;88.54;100995.28;3579297;40;20115;-64
2021/12/30 05:21:05;;;;;;;14.13;12.63;;;;;;;14.09;88.17;100995.53;3580201;40;20060;-65
2021/12/30 05:23:31;;;;;;;13.23;11.80;;;;;;;14.08;88.22;101013.59;3579991;40;20056;-66
2021/12/30 05:25:58;;;;;;;12.32;11.13;;;;;;;14.16;87.98;101008.47;3576909;40;20405;-67
2021/12/30 05:28:24;;;;;;;11.35;10.25;;;;;;;14.20;87.52;101009.09;3579484;40;20395;-65
2021/12/30 05:30:50;;;;;;;10.07;9.18;;;;;;;14.12;87.66;101001.56;3579622;40;20048;-64
2021/12/30 05:33:16;;;;;;;8.82;8.02;;;;;;;14.23;87.89;101022.38;3579574;40;20061;-63
2021/12/30 05:35:41;;;;;;;8.45;7.75;;;;;;;14.24;87.97;101025.94;3578111;40;20103;-65
2021/12/30 05:38:08;;;;;;;8.05;7.45;;;;;;;14.25;86.97;101031.25;3580302;40;20056;-64
2021/12/30 05:40:35;;;;;;;7.60;6.78;;;;;;;14.29;87.03;101034.59;3581102;40;20097;-64
2021/12/30 05:43:01;;;;;;;6.78;6.10;;;;;;;14.28;86.93;101032.88;3578929;40;20355;-64
2021/12/30 05:45:27;;;;;;;6.97;6.47;;;;;;;14.28;86.56;101031.03;3578417;40;20090;-65
2021/12/30 05:47:53;;;;;;;6.72;6.22;;;;;;;14.38;86.53;101036.63;3568126;40;20542;-65
2021/12/30 05:50:24;;;;;;;6.75;6.25;;;;;;;14.39;86.39;101041.91;3579616;40;20048;-64
2021/12/30 05:52:50;;;;;;;8.10;7.50;;;;;;;14.40;85.43;101053.59;3580185;40;20313;-66
2021/12/30 05:55:16;;;;;;;9.77;8.65;;;;;;;14.41;85.23;101055.31;3577450;40;20064;-64
2021/12/30 05:57:44;;;;;;;9.30;8.32;;;;;;;14.43;84.88;101052.50;3579162;40;20058;-65
2021/12/30 06:00:15;;;;;;;8.63;7.93;;;;;;;14.43;85.41;101047.97;3578749;40;20079;-63
2021/12/30 06:02:41;;;;;;;9.07;8.27;;;;;;;14.46;85.10;101053.16;3579533;40;20048;-64
2021/12/30 06:05:08;;;;;;;8.85;8.00;;;;;;;14.26;84.66;101016.75;3576435;40;20126;-64
2021/12/30 06:07:34;;;;;;;10.00;9.00;;;;;;;14.46;84.65;101044.16;3579757;40;20111;-67
2021/12/30 06:10:00;;;;;;;9.40;8.50;;;;;;;14.42;85.37;101037.25;3577494;40;20413;-64
2021/12/30 06:12:25;;;;;;;8.88;8.05;;;;;;;14.39;85.33;101032.94;3578944;40;20065;-64
2021/12/30 06:14:51;;;;;;;9.38;8.57;;;;;;;13.48;84.64;100884.72;3579934;40;20057;-64
2021/12/30 06:17:16;;;;;;;7.88;7.28;;;;;;;14.42;85.07;101048.94;3568725;40;20061;-64
2021/12/30 06:19:43;;;;;;;8.07;6.40;;;;;;;14.43;84.64;101047.97;3578906;40;20059;-65
2021/12/30 06:22:14;;;;;;;6.75;6.15;;;;;;;14.42;84.62;101046.22;3580108;40;20052;-66
2021/12/30 06:24:41;;;;;;;6.22;5.72;;;;;;;14.44;84.47;101052.41;3578056;40;20305;-66
2021/12/30 06:27:07;;;;;;;6.00;5.60;;;;;;;14.43;85.06;101053.38;3579666;40;20691;-65
2021/12/30 06:29:34;;;;;;;5.75;5.20;;;;;;;14.36;84.35;101041.28;3579129;40;20103;-65
2021/12/30 06:32:01;;;;;;;5.80;5.13;;;;;;;14.40;84.19;101042.78;3578865;40;20048;-66
2021/12/30 06:34:27;;;;;;;5.55;5.05;;;;;;;14.39;84.25;101044.59;3578626;40;20414;-66
2021/12/30 06:36:52;;;;;;;5.30;4.80;;;;;;;14.43;84.68;101042.56;3579485;40;20056;-66
2021/12/30 06:39:18;;;;;;;5.07;4.68;;;;;;;14.37;83.84;101049.28;3578837;40;20056;-64
2021/12/30 06:41:44;;;;;;;4.93;4.53;;;;;;;14.41;84.50;101049.91;3577399;40;20052;-65
2021/12/30 06:44:10;;;;;;;4.60;4.22;;;;;;;14.44;84.27;101051.53;3577710;40;20056;-66
2021/12/30 06:46:36;;;;;;;4.18;3.78;;;;;;;14.43;84.06;101047.97;3579149;40;20474;-65
2021/12/30 06:49:09;;;;;;;4.30;3.90;;;;;;;14.37;84.05;101043.88;3578346;40;20063;-66
2021/12/30 06:51:35;;;;;;;4.00;3.60;;;;;;;14.45;83.49;101061.38;3582652;40;20063;-65
2021/12/30 06:54:04;;;;;;;3.95;3.47;;;;;;;14.37;83.39;101046.56;3579186;40;20465;-64
2021/12/30 06:56:31;;;;;;;6.15;3.90;;;;;;;14.44;83.49;101054.25;3577961;40;20063;-66
2021/12/30 06:58:58;;;;;;;3.72;3.42;;;;;;;14.50;82.97;101076.28;3578709;40;20052;-65
2021/12/30 07:01:23;;;;;;;3.78;3.38;;;;;;;14.54;83.04;101076.94;3577469;40;20060;-64
2021/12/30 07:03:49;;;;;;;3.95;3.38;;;;;;;14.54;83.65;101088.63;3579691;40;20062;-66
2021/12/30 07:06:14;;;;;;;4.53;4.13;;;;;;;14.52;83.08;101079.75;3577726;40;20097;-64
2021/12/30 07:08:41;;;;;;;5.15;4.00;;;;;;;14.52;83.24;101090.56;3578143;40;20378;-65
2021/12/30 07:11:06;;;;;;;5.20;4.60;;;;;;;14.52;83.74;101089.72;3577519;40;20060;-67
2021/12/30 07:13:32;;;;;;;5.45;4.95;;;;;;;14.49;83.24;101107.00;3577239;40;20395;-65
2021/12/30 07:15:59;;;;;;;5.97;5.38;;;;;;;14.54;83.46;101093.19;3578706;40;20093;-65
2021/12/30 07:18:24;;;;;;;6.40;5.45;;;;;;;14.54;83.58;101098.59;3576462;40;20092;-65
2021/12/30 07:20:50;;;;;;;6.47;5.75;;;;;;;14.54;83.02;101104.00;3571659;40;20264;-64
2021/12/30 07:23:15;;;;;;;5.68;5.18;;;;;;;14.56;83.06;101112.88;3578264;40;20480;-63
2021/12/30 07:25:41;;;;;;;5.70;5.20;;;;;;;14.56;82.83;101112.88;3581264;40;20417;-65
2021/12/30 07:28:07;;;;;;;6.63;5.25;;;;;;;14.50;83.49;101116.84;3578149;40;20052;-65
2021/12/30 07:30:33;;;;;;;9.05;5.22;;;;;;;14.51;83.86;101120.47;3578171;40;20222;-65
2021/12/30 07:33:00;;;;;;;6.05;5.45;;;;;;;14.50;83.67;101127.69;3578621;40;20462;-64
2021/12/30 07:35:26;;;;;;;6.07;4.57;;;;;;;14.52;83.56;101131.16;3578987;40;20048;-65
2021/12/30 07:37:52;;;;;;;6.03;5.10;;;;;;;14.40;83.38;101103.16;3577596;40;20067;-64
2021/12/30 07:40:19;;;;;;;8.07;5.35;;;;;;;14.53;83.45;101124.78;3578719;40;20130;-64
2021/12/30 07:42:45;;;;;;;5.50;5.00;;;;;;;14.56;82.87;101134.53;3578638;40;20048;-64
2021/12/30 07:45:13;;;;;;;6.53;5.50;;;;;;;14.56;83.01;101129.97;3576233;40;20071;-64
2021/12/30 07:47:40;;;;;;;6.85;5.65;;;;;;;14.55;83.10;101128.22;3577813;40;20096;-65
2021/12/30 07:50:07;;;;;;;7.15;5.45;;;;;;;14.60;83.10;101131.47;3576970;40;20517;-64
2021/12/30 07:52:34;;;;;;;6.38;5.78;;;;;;;14.59;82.74;101145.13;3575148;40;20053;-65
2021/12/30 07:55:00;;;;;;;7.13;5.47;;;;;;;14.57;82.78;101139.81;3578913;40;20362;-68
2021/12/30 07:57:26;;;;;;;6.03;5.43;;;;;;;14.58;82.80;101146.94;3579595;40;20049;-65
2021/12/30 07:59:52;;;;;;;7.07;5.78;;;;;;;14.57;83.12;101147.91;3581242;40;20052;-63
2021/12/30 08:02:19;;;;;;;6.53;5.82;;;;;;;14.53;83.03;101124.78;3580089;40;20052;-66
2021/12/30 08:04:46;;;;;;;6.68;5.32;;;;;;;14.57;82.85;101126.28;3581225;40;20091;-66
2021/12/30 08:07:11;;;;;;;6.55;5.53;;;;;;;14.57;82.82;101120.88;3578888;40;20314;-65
2021/12/30 08:09:37;;;;;;;6.95;5.32;;;;;;;14.58;82.27;101122.59;3580984;40;20048;-66
2021/12/30 08:12:03;;;;;;;16.15;11.82;;;;;;;14.42;82.65;101091.34;3578182;40;20465;-64
2021/12/30 08:14:30;;;;;;;5.30;4.80;;;;;;;14.49;82.13;101120.53;3579947;40;20088;-65
2021/12/30 08:16:56;;;;;;;6.30;4.78;;;;;;;14.54;82.34;101144.59;3580395;40;20052;-64
2021/12/30 08:19:22;;;;;;;5.88;4.53;;;;;;;14.54;82.06;101148.16;3579964;40;20057;-64
2021/12/30 08:21:47;;;;;;;4.10;3.80;;;;;;;14.52;82.28;101154.63;3578703;40;20104;-65
2021/12/30 08:24:13;;;;;;;4.70;3.67;;;;;;;14.55;83.02;101165.22;3580536;40;20074;-64
2021/12/30 08:26:40;;;;;;;4.55;3.40;;;;;;;14.52;82.36;101158.19;3622112;22;20151;-62
2021/12/30 08:29:07;;;;;;;4.43;3.05;;;;;;;14.54;82.37;101164.38;3588034;39;20051;-63
2021/12/30 08:31:34;;;;;;;3.15;2.95;;;;;;;14.55;82.28;101147.16;3592906;39;20047;-63
2021/12/30 08:34:01;;;;;;;5.07;3.45;;;;;;;14.58;82.51;101155.06;3590743;39;20310;-63
2021/12/30 08:36:26;;;;;;;4.00;3.25;;;;;;;14.60;81.92;101157.66;3579779;40;20133;-63
2021/12/30 08:38:52;;;;;;;5.03;3.65;;;;;;;14.60;82.50;101163.06;3581314;40;20048;-63
2021/12/30 08:41:18;;;;;;;4.50;3.90;;;;;;;14.31;81.76;101113.78;3579968;40;20122;-64
2021/12/30 08:43:44;;;;;;;4.22;3.80;;;;;;;14.60;82.38;101163.06;3581781;40;20092;-63
2021/12/30 08:46:09;;;;;;;32.35;25.88;;;;;;;14.60;82.33;101163.06;3579678;40;20067;-63
2021/12/30 08:48:37;;;;;;;59.67;42.15;;;;;;;14.63;81.82;101171.81;3582426;40;20059;-64
2021/12/30 08:51:03;;;;;;;4.38;3.20;;;;;;;14.58;81.82;101167.72;3579678;40;20052;-63
2021/12/30 08:53:29;;;;;;;3.53;3.20;;;;;;;14.63;82.17;101185.34;3577632;40;20078;-63
2021/12/30 08:55:56;;;;;;;5.95;3.30;;;;;;;14.66;81.64;101183.41;3580816;40;20391;-63
2021/12/30 08:58:22;;;;;;;4.85;3.10;;;;;;;14.66;81.98;101200.50;3580712;40;22031;-63
2021/12/30 09:00:48;;;;;;;5.57;3.00;;;;;;;14.71;82.09;101198.31;3581945;40;20052;-63
2021/12/30 09:03:16;;;;;;;3.20;2.90;;;;;;;14.60;81.77;101184.72;3581344;40;20487;-62
2021/12/30 09:05:42;;;;;;;4.43;2.70;;;;;;;14.65;81.50;101195.19;3580661;40;20391;-63
2021/12/30 09:08:09;;;;;;;5.15;2.70;;;;;;;14.73;81.34;101206.31;3581395;40;20056;-63
2021/12/30 09:10:45;;;;;;;4.25;2.47;;;;;;;14.82;81.75;101198.41;3581292;40;20125;-64
2021/12/30 09:13:14;;;;;;;6.30;2.92;;;;;;;14.87;80.98;101203.44;3578526;40;20089;-63
2021/12/30 09:15:41;;;;;;;6.10;3.10;;;;;;;14.91;80.82;101193.28;3579660;40;20046;-64
2021/12/30 09:18:07;;;;;;;4.13;2.70;;;;;;;14.93;80.82;101200.28;3581752;40;20048;-64
2021/12/30 09:20:35;;;;;;;3.83;2.40;;;;;;;14.97;80.27;101212.66;3574732;40;20070;-62
2021/12/30 09:23:06;;;;;;;6.70;3.00;;;;;;;15.05;79.86;101198.53;3580965;40;20054;-62
2021/12/30 09:25:32;;;;;;;4.30;2.70;;;;;;;15.12;79.52;101213.31;3579465;40;20099;-63
2021/12/30 09:27:57;;;;;;;6.80;2.58;;;;;;;15.17;79.87;101213.00;3577753;40;20071;-61
2021/12/30 09:30:26;;;;;;;6.95;3.20;;;;;;;15.22;79.60;101213.50;3578216;40;20067;-62
2021/12/30 09:32:56;;;;;;;4.30;2.80;;;;;;;15.23;79.54;101215.25;3581418;40;20048;-63
2021/12/30 09:35:23;;;;;;;7.20;2.45;;;;;;;15.28;78.53;101223.88;3575322;40;20401;-62
2021/12/30 09:37:49;;;;;;;6.38;2.65;;;;;;;15.30;78.74;101227.34;3578216;40;20052;-62
2021/12/30 09:40:18;;;;;;;5.32;2.67;;;;;;;15.40;78.09;101236.50;3581017;40;20059;-62
2021/12/30 09:42:49;;;;;;;24.52;17.75;;;;;;;15.39;78.11;101237.50;3581537;40;20138;-63
2021/12/30 09:45:17;;;;;;;10.63;5.75;;;;;;;15.39;77.74;101237.50;3580145;40;20088;-63
2021/12/30 09:47:53;;;;;;;7.32;4.90;;;;;;;15.44;76.57;101245.25;3578094;40;20379;-62
2021/12/30 09:50:26;;;;;;;8.77;4.88;;;;;;;15.46;76.82;101249.59;3579567;40;20354;-62
2021/12/30 09:52:52;;;;;;;14.95;9.57;;;;;;;15.47;76.70;101248.59;3582426;40;20103;-63
2021/12/30 09:55:18;;;;;;;9.55;3.30;;;;;;;15.44;76.40;101251.53;3579974;40;20382;-63
2021/12/30 09:57:45;;;;;;;9.57;3.22;;;;;;;15.43;76.48;101244.41;3579948;40;20048;-63
2021/12/30 10:00:13;;;;;;;9.50;3.03;;;;;;;15.48;76.67;101241.34;3579851;40;20327;-65
2021/12/30 10:02:44;;;;;;;10.02;3.30;;;;;;;15.42;76.11;101226.41;3577699;40;20052;-63
2021/12/30 10:05:18;;;;;;;8.32;3.05;;;;;;;15.47;76.35;101240.47;3580550;40;20106;-63
2021/12/30 10:07:45;;;;;;;9.20;3.00;;;;;;;15.44;76.43;101246.13;3579463;40;20061;-63
2021/12/30 10:10:33;;;;;;;11.23;3.20;;;;;;;15.42;76.38;101245.38;3579159;40;20108;-63
2021/12/30 10:13:18;;;;;;;9.63;3.22;;;;;;;15.40;76.54;101246.47;3579341;40;20060;-63
2021/12/30 10:15:47;;;;;;;9.18;3.17;;;;;;;15.35;75.72;101238.72;3580418;40;20088;-63
2021/12/30 10:18:15;;;;;;;9.55;3.45;;;;;;;15.37;75.80;101238.56;3573763;40;20048;-63
2021/12/30 10:20:42;;;;;;;16.70;3.35;;;;;;;15.40;76.37;101233.78;3578701;40;20055;-63
2021/12/30 10:23:13;;;;;;;9.73;3.35;;;;;;;15.41;76.28;101237.34;3576826;40;20104;-64
2021/12/30 10:25:46;;;;;;;11.20;3.35;;;;;;;15.43;75.62;101252.53;3579418;40;20130;-63
2021/12/30 10:28:27;;;;;;;10.48;2.90;;;;;;;15.45;76.38;101241.59;3573786;40;20048;-63
2021/12/30 10:31:10;;;;;;;11.27;3.45;;;;;;;15.48;75.95;101253.06;3581508;40;20052;-63
2021/12/30 10:33:51;;;;;;;12.32;3.33;;;;;;;15.48;75.37;101242.22;3581583;40;20049;-63
2021/12/30 10:36:27;;;;;;;11.25;3.17;;;;;;;15.51;75.10;101252.81;3580396;40;20060;-63
2021/12/30 10:39:13;;;;;;;7.18;2.83;;;;;;;15.53;75.49;101242.72;3581610;40;20048;-63
2021/12/30 10:41:39;;;;;;;12.45;3.30;;;;;;;15.55;75.34;101254.31;3578004;40;20106;-63
2021/12/30 10:44:06;;;;;;;9.13;3.35;;;;;;;15.56;74.90;101253.31;3578360;40;20059;-63
2021/12/30 10:46:32;;;;;;;11.55;2.90;;;;;;;15.49;75.41;101237.66;3578989;40;20054;-63
2021/12/30 10:49:11;;;;;;;8.75;3.17;;;;;;;15.61;74.96;101246.69;3578258;40;20060;-63
2021/12/30 10:51:48;;;;;;;12.65;3.20;;;;;;;15.65;74.20;101259.88;3581570;40;20422;-63
2021/12/30 10:54:20;;;;;;;16.35;6.93;;;;;;;15.70;74.19;101256.88;3579109;40;20391;-63
2021/12/30 10:56:56;;;;;;;18.40;7.85;;;;;;;15.71;73.92;101255.88;3576875;40;20052;-63
2021/12/30 10:59:32;;;;;;;8.23;3.22;;;;;;;15.73;74.19;101251.19;3581314;40;20407;-63
2021/12/30 11:02:12;;;;;;;16.00;3.63;;;;;;;15.75;74.38;101260.94;3577117;40;20143;-62
2021/12/30 11:04:53;;;;;;;12.38;4.78;;;;;;;15.76;73.58;101253.66;3579969;40;20145;-63
2021/12/30 11:07:40;;;;;;;10.95;3.47;;;;;;;15.72;73.99;101252.19;3581858;40;20091;-63
2021/12/30 11:10:07;;;;;;;7.28;3.42;;;;;;;15.72;73.24;101258.47;3578576;40;20053;-63
2021/12/30 11:12:41;;;;;;;15.13;4.45;;;;;;;15.72;74.76;101250.34;3578729;40;20048;-63
2021/12/30 11:15:27;;;;;;;12.80;3.45;;;;;;;15.74;73.65;101263.78;3575531;40;20108;-62
2021/12/30 11:18:40;;;;;;;9.45;3.00;;;;;;;15.51;73.35;101217.59;3579522;40;20056;-62
2021/12/30 11:21:05;;;;;;;8.93;2.80;;;;;;;15.76;74.07;101257.28;3550510;40;20082;-62
2021/12/30 11:23:32;;;;;;;18.42;3.10;;;;;;;15.85;73.52;101249.38;3567274;40;20418;-62